createdAt,value
2022-10-28T00:01:43.326Z,5.43
2022-10-28T00:04:45.859Z,5.93
2022-10-28T00:07:48.340Z,5.53
2022-10-28T00:10:52.658Z,5.18
2022-10-28T00:13:55.897Z,5.93
2022-10-28T00:16:58.367Z,5.93
2022-10-28T00:20:00.835Z,5.55
2022-10-28T00:23:03.311Z,6.22
2022-10-28T00:26:08.911Z,5.93
2022-10-28T00:29:13.687Z,5.43
2022-10-28T00:32:16.145Z,5.50
2022-10-28T00:35:18.607Z,5.60
2022-10-28T00:38:21.073Z,4.97
2022-10-28T00:41:29.755Z,5.13
2022-10-28T00:44:49.417Z,5.15
2022-10-28T00:47:55.985Z,5.50
2022-10-28T00:50:59.142Z,5.32
2022-10-28T00:54:02.323Z,5.18
2022-10-28T00:57:11.779Z,4.85
2022-10-28T01:00:15.231Z,4.85
2022-10-28T01:03:18.366Z,5.10
2022-10-28T01:06:21.244Z,4.97
2022-10-28T01:12:42.113Z,4.85
2022-10-28T01:15:52.428Z,4.93
2022-10-28T01:19:06.430Z,5.53
2022-10-28T01:22:19.766Z,5.75
2022-10-28T01:25:50.803Z,5.53
2022-10-28T01:29:18.319Z,5.35
2022-10-28T01:32:30.641Z,4.53
2022-10-28T01:35:40.343Z,5.57
2022-10-28T01:38:51.542Z,5.28
2022-10-28T01:42:00.113Z,5.25
2022-10-28T01:45:08.236Z,4.97
2022-10-28T01:48:16.627Z,5.60
2022-10-28T01:51:25.047Z,5.28
2022-10-28T01:54:30.406Z,5.50
2022-10-28T01:57:36.896Z,6.45
2022-10-28T02:00:40.114Z,5.50
2022-10-28T02:03:46.371Z,6.13
2022-10-28T02:06:52.747Z,6.80
2022-10-28T02:10:09.962Z,5.65
2022-10-28T02:13:15.642Z,6.13
2022-10-28T02:16:24.848Z,5.63
2022-10-28T02:19:39.130Z,5.65
2022-10-28T02:22:47.193Z,6.03
2022-10-28T02:25:56.226Z,6.20
2022-10-28T02:29:05.887Z,6.07
2022-10-28T02:32:13.142Z,5.68
2022-10-28T02:35:21.540Z,6.85
2022-10-28T02:38:29.261Z,6.63
2022-10-28T02:41:36.198Z,6.25
2022-10-28T02:44:45.056Z,5.75
2022-10-28T02:47:56.108Z,6.30
2022-10-28T02:51:06.663Z,6.47
2022-10-28T02:54:14.133Z,6.07
2022-10-28T02:57:19.283Z,6.15
2022-10-28T03:00:24.575Z,6.65
2022-10-28T03:03:27.083Z,5.95
2022-10-28T03:06:30.903Z,6.22
2022-10-28T03:09:33.397Z,6.25
2022-10-28T03:12:36.012Z,6.43
2022-10-28T03:15:38.477Z,5.57
2022-10-28T03:18:41.046Z,5.03
2022-10-28T03:21:44.837Z,7.10
2022-10-28T03:24:47.348Z,6.40
2022-10-28T03:27:49.855Z,6.97
2022-10-28T03:30:52.319Z,6.78
2022-10-28T03:33:54.868Z,6.80
2022-10-28T03:36:58.664Z,6.72
2022-10-28T03:40:02.478Z,6.15
2022-10-28T03:43:04.953Z,5.90
2022-10-28T03:46:07.410Z,6.70
2022-10-28T03:49:09.879Z,6.68
2022-10-28T03:52:13.694Z,8.63
2022-10-28T03:55:16.346Z,8.27
2022-10-28T03:58:18.818Z,8.13
2022-10-28T04:01:21.460Z,7.53
2022-10-28T04:04:28.372Z,9.98
2022-10-28T04:07:34.704Z,7.97
2022-10-28T04:10:37.918Z,7.60
2022-10-28T04:13:40.491Z,6.55
2022-10-28T04:16:42.976Z,6.32
2022-10-28T04:19:45.525Z,7.75
2022-10-28T04:22:53.196Z,7.32
2022-10-28T04:25:58.684Z,9.27
2022-10-28T04:29:01.175Z,9.73
2022-10-28T04:32:03.801Z,9.82
2022-10-28T04:35:06.915Z,9.50
2022-10-28T04:38:11.256Z,8.98
2022-10-28T04:41:15.290Z,7.85
2022-10-28T04:44:17.748Z,8.68
2022-10-28T04:47:20.227Z,9.02
2022-10-28T04:50:22.704Z,8.07
2022-10-28T04:53:26.626Z,8.43
2022-10-28T04:56:31.032Z,7.43
2022-10-28T04:59:33.537Z,8.15
2022-10-28T05:02:36.097Z,8.75
2022-10-28T05:05:38.571Z,7.53
2022-10-28T05:08:42.394Z,6.53
2022-10-28T05:11:44.975Z,6.70
2022-10-28T05:14:50.014Z,6.65
2022-10-28T05:17:55.428Z,7.30
2022-10-28T05:20:58.140Z,7.88
2022-10-28T05:24:01.984Z,6.95
2022-10-28T05:27:04.661Z,7.78
2022-10-28T05:30:08.545Z,8.23
2022-10-28T05:33:11.501Z,8.15
2022-10-28T05:36:13.988Z,7.78
2022-10-28T05:39:17.995Z,8.55
2022-10-28T05:42:20.531Z,8.77
2022-10-28T05:45:23.073Z,7.97
2022-10-28T05:48:25.909Z,8.70
2022-10-28T05:51:28.364Z,7.80
2022-10-28T05:54:32.210Z,7.93
2022-10-28T05:57:35.639Z,7.82
2022-10-28T06:00:38.288Z,8.20
2022-10-28T06:03:40.798Z,7.60
2022-10-28T06:06:43.294Z,6.78
2022-10-28T06:09:47.078Z,7.80
2022-10-28T06:12:48.054Z,7.68
2022-10-28T06:15:51.377Z,8.07
2022-10-28T06:18:53.915Z,8.50
2022-10-28T06:21:56.407Z,7.68
2022-10-28T06:25:00.251Z,8.73
2022-10-28T06:28:05.832Z,8.07
2022-10-28T06:31:12.035Z,8.43
2022-10-28T06:34:14.906Z,8.45
2022-10-28T06:37:17.426Z,8.23
2022-10-28T06:40:21.670Z,8.68
2022-10-28T06:43:24.217Z,8.27
2022-10-28T06:46:26.907Z,7.40
2022-10-28T06:49:30.891Z,8.65
2022-10-28T06:52:33.423Z,7.93
2022-10-28T06:55:38.313Z,8.00
2022-10-28T06:58:40.809Z,7.80
2022-10-28T07:01:43.388Z,6.97
2022-10-28T07:04:45.923Z,6.90
2022-10-28T07:07:48.696Z,7.15
2022-10-28T07:10:57.404Z,6.63
2022-10-28T07:14:00.198Z,6.43
2022-10-28T07:17:02.897Z,6.63
2022-10-28T07:20:06.120Z,6.05
2022-10-28T07:23:09.547Z,6.18
2022-10-28T07:26:13.356Z,6.22
2022-10-28T07:29:16.370Z,5.57
2022-10-28T07:32:18.853Z,6.15
2022-10-28T07:35:21.544Z,6.50
2022-10-28T07:38:24.026Z,5.68
2022-10-28T07:41:28.135Z,6.10
2022-10-28T07:44:30.865Z,5.97
2022-10-28T07:47:33.573Z,6.15
2022-10-28T07:50:36.024Z,5.88
2022-10-28T07:53:38.963Z,5.95
2022-10-28T07:56:42.785Z,5.65
2022-10-28T07:59:45.256Z,5.85
2022-10-28T08:02:47.717Z,6.25
2022-10-28T08:05:50.155Z,6.05
2022-10-28T08:08:55.761Z,5.20
2022-10-28T08:11:59.546Z,4.53
2022-10-28T08:15:02.737Z,5.80
2022-10-28T08:18:05.384Z,5.18
2022-10-28T08:21:09.822Z,4.80
2022-10-28T08:24:12.472Z,5.10
2022-10-28T08:27:16.313Z,4.60
2022-10-28T08:30:22.147Z,5.05
2022-10-28T08:33:24.646Z,5.07
2022-10-28T08:36:27.342Z,5.88
2022-10-28T08:39:29.804Z,5.10
2022-10-28T08:42:41.051Z,5.38
2022-10-28T08:45:53.364Z,5.18
2022-10-28T08:48:56.123Z,5.45
2022-10-28T08:52:01.995Z,5.28
2022-10-28T08:55:08.256Z,5.10
2022-10-28T08:58:20.505Z,4.90
2022-10-28T09:01:33.532Z,5.82
2022-10-28T09:04:39.951Z,4.88
2022-10-28T09:07:42.509Z,4.63
2022-10-28T09:11:00.875Z,4.88
2022-10-28T09:14:17.016Z,4.50
2022-10-28T09:17:21.601Z,4.38
2022-10-28T09:20:33.775Z,4.72
2022-10-28T09:23:41.138Z,4.40
2022-10-28T09:26:54.328Z,4.30
2022-10-28T09:30:08.042Z,4.03
2022-10-28T09:33:22.644Z,4.32
2022-10-28T09:36:33.647Z,3.75
2022-10-28T09:39:43.921Z,4.63
2022-10-28T09:42:53.278Z,4.10
2022-10-28T09:46:01.616Z,3.97
2022-10-28T09:49:06.946Z,3.40
2022-10-28T09:52:16.076Z,3.92
2022-10-28T09:55:22.028Z,3.72
2022-10-28T09:58:24.895Z,4.05
2022-10-28T10:01:33.908Z,3.50
2022-10-28T10:04:39.261Z,3.17
2022-10-28T10:07:45.453Z,3.45
2022-10-28T10:10:50.951Z,3.67
2022-10-28T10:13:56.015Z,2.85
2022-10-28T10:17:03.682Z,3.10
2022-10-28T10:20:09.276Z,3.35
2022-10-28T10:23:23.136Z,3.70
2022-10-28T10:26:25.724Z,3.88
2022-10-28T10:29:30.150Z,3.63
2022-10-28T10:32:34.871Z,3.30
2022-10-28T10:35:39.232Z,3.63
2022-10-28T10:38:49.103Z,3.50
2022-10-28T10:41:51.586Z,3.25
2022-10-28T10:45:01.468Z,2.85
2022-10-28T10:48:13.688Z,3.20
2022-10-28T10:51:23.142Z,3.13
2022-10-28T10:54:27.453Z,3.10
2022-10-28T10:57:30.370Z,3.35
2022-10-28T11:00:37.620Z,2.97
2022-10-28T11:03:50.168Z,3.35
2022-10-28T11:06:55.729Z,2.85
2022-10-28T11:09:58.531Z,3.38
2022-10-28T11:13:07.086Z,3.15
2022-10-28T11:16:19.672Z,3.42
2022-10-28T11:19:25.610Z,2.97
2022-10-28T11:22:43.884Z,3.13
2022-10-28T11:25:50.477Z,3.03
2022-10-28T11:29:08.380Z,2.72
2022-10-28T11:32:54.556Z,3.00
2022-10-28T11:36:16.040Z,2.78
2022-10-28T11:39:21.887Z,3.10
2022-10-28T11:42:34.352Z,3.78
2022-10-28T11:45:41.343Z,2.88
2022-10-28T11:48:57.277Z,3.15
2022-10-28T11:52:13.752Z,3.35
2022-10-28T11:55:28.262Z,3.28
2022-10-28T11:58:41.279Z,3.42
2022-10-28T12:01:55.003Z,2.92
2022-10-28T12:05:04.245Z,2.90
2022-10-28T12:08:21.785Z,2.85
2022-10-28T12:11:39.789Z,2.88
2022-10-28T12:14:53.066Z,3.47
2022-10-28T12:18:06.060Z,2.88
2022-10-28T12:21:14.513Z,3.45
2022-10-28T12:24:22.154Z,3.55
2022-10-28T12:27:28.422Z,3.03
2022-10-28T12:30:35.248Z,2.92
2022-10-28T12:33:44.491Z,3.40
2022-10-28T12:36:51.784Z,3.67
2022-10-28T12:40:02.454Z,2.80
2022-10-28T12:43:10.393Z,3.37
2022-10-28T12:46:23.098Z,2.70
2022-10-28T12:49:38.231Z,3.50
2022-10-28T12:52:49.676Z,3.15
2022-10-28T12:59:05.980Z,3.00
2022-10-28T13:02:17.906Z,3.75
2022-10-28T13:05:24.512Z,3.42
2022-10-28T13:09:01.943Z,3.03
2022-10-28T13:12:35.809Z,2.95
2022-10-28T13:15:49.196Z,3.67
2022-10-28T13:19:18.625Z,3.05
2022-10-28T13:22:46.013Z,3.03
2022-10-28T13:26:00.093Z,2.90
2022-10-28T13:29:07.279Z,3.10
2022-10-28T13:32:33.995Z,2.88
2022-10-28T13:35:40.042Z,3.35
2022-10-28T13:38:42.923Z,2.50
2022-10-28T13:41:48.766Z,2.70
2022-10-28T13:44:54.425Z,3.17
2022-10-28T13:48:33.384Z,2.50
2022-10-28T13:51:51.119Z,3.17
2022-10-28T13:54:55.265Z,3.25
2022-10-28T13:58:04.156Z,2.65
2022-10-28T14:01:45.460Z,2.85
2022-10-28T14:04:57.574Z,2.47
2022-10-28T14:08:02.626Z,2.83
2022-10-28T14:11:07.831Z,2.42
2022-10-28T14:14:17.576Z,2.90
2022-10-28T14:17:24.028Z,3.13
2022-10-28T14:20:32.971Z,2.70
2022-10-28T14:24:11.526Z,2.63
2022-10-28T14:27:30.601Z,2.70
2022-10-28T14:30:33.199Z,2.83
2022-10-28T14:33:36.627Z,3.17
2022-10-28T14:36:49.200Z,2.88
2022-10-28T14:40:18.451Z,2.88
2022-10-28T14:43:42.135Z,3.08
2022-10-28T14:47:03.791Z,2.42
2022-10-28T14:53:20.154Z,3.13
2022-10-28T14:56:27.677Z,3.20
2022-10-28T14:59:33.971Z,2.58
2022-10-28T15:02:38.864Z,3.42
2022-10-28T15:05:41.459Z,3.10
2022-10-28T15:08:45.346Z,3.47
2022-10-28T15:11:51.332Z,3.15
2022-10-28T15:14:56.006Z,3.53
2022-10-28T15:17:59.638Z,3.00
2022-10-28T15:21:09.871Z,3.53
2022-10-28T15:24:15.227Z,3.05
2022-10-28T15:27:18.051Z,3.15
2022-10-28T15:30:23.746Z,3.20
2022-10-28T15:33:31.177Z,3.20
2022-10-28T15:36:33.827Z,3.15
2022-10-28T15:39:39.233Z,3.20
2022-10-28T15:42:50.297Z,3.05
2022-10-28T15:45:53.434Z,3.35
2022-10-28T15:48:57.565Z,3.63
2022-10-28T15:52:21.914Z,3.08
2022-10-28T15:56:02.383Z,3.15
2022-10-28T15:59:07.222Z,3.25
2022-10-28T16:02:40.410Z,3.47
2022-10-28T16:05:48.354Z,3.65
2022-10-28T16:09:01.001Z,3.17
2022-10-28T16:12:14.072Z,3.17
2022-10-28T16:15:17.603Z,3.35
2022-10-28T16:18:20.377Z,3.63
2022-10-28T16:21:25.318Z,3.85
2022-10-28T16:24:27.847Z,4.13
2022-10-28T16:27:33.475Z,3.50
2022-10-28T16:30:36.000Z,3.33
2022-10-28T16:33:39.690Z,3.60
2022-10-28T16:36:42.176Z,3.65
2022-10-28T16:39:44.662Z,3.85
2022-10-28T16:42:48.470Z,4.10
2022-10-28T16:45:52.203Z,3.47
2022-10-28T16:48:54.800Z,4.18
2022-10-28T16:51:57.349Z,3.75
2022-10-28T16:54:59.992Z,3.85
2022-10-28T16:58:03.849Z,3.63
2022-10-28T17:01:06.747Z,3.70
2022-10-28T17:04:09.880Z,4.45
2022-10-28T17:07:16.216Z,3.50
2022-10-28T17:10:18.954Z,3.72
2022-10-28T17:13:22.756Z,3.55
2022-10-28T17:16:25.375Z,3.38
2022-10-28T17:19:27.986Z,4.05
2022-10-28T17:22:30.663Z,3.78
2022-10-28T17:25:33.244Z,3.50
2022-10-28T17:28:37.072Z,3.92
2022-10-28T17:31:39.624Z,3.60
2022-10-28T17:34:42.147Z,3.50
2022-10-28T17:37:44.618Z,3.92
2022-10-28T17:40:54.507Z,3.72
2022-10-28T17:43:58.285Z,4.65
2022-10-28T17:47:00.780Z,3.72
2022-10-28T17:50:03.405Z,4.57
2022-10-28T17:53:05.882Z,5.78
2022-10-28T17:56:09.201Z,4.75
2022-10-28T17:59:13.154Z,5.03
2022-10-28T18:02:15.700Z,4.10
2022-10-28T18:05:18.329Z,3.72
2022-10-28T18:08:21.518Z,3.78
2022-10-28T18:11:24.166Z,3.88
2022-10-28T18:14:28.645Z,4.28
2022-10-28T18:17:31.113Z,4.32
2022-10-28T18:20:33.786Z,3.60
2022-10-28T18:23:36.399Z,3.63
2022-10-28T18:26:40.866Z,4.40
2022-10-28T18:29:44.706Z,4.47
2022-10-28T18:32:47.179Z,3.88
2022-10-28T18:35:49.661Z,4.63
2022-10-28T18:38:52.600Z,4.18
2022-10-28T18:41:55.135Z,4.07
2022-10-28T18:44:58.926Z,4.32
2022-10-28T18:48:01.630Z,4.43
2022-10-28T18:51:07.300Z,4.30
2022-10-28T18:54:09.818Z,4.65
2022-10-28T18:57:12.348Z,3.88
2022-10-28T19:00:18.354Z,4.43
2022-10-28T19:03:23.541Z,4.10
2022-10-28T19:06:29.799Z,4.20
2022-10-28T19:09:32.293Z,4.25
2022-10-28T19:12:38.024Z,3.72
2022-10-28T19:15:48.429Z,3.40
2022-10-28T19:18:55.381Z,4.00
2022-10-28T19:21:58.041Z,3.75
2022-10-28T19:25:00.494Z,4.05
2022-10-28T19:28:03.034Z,4.70
2022-10-28T19:31:09.059Z,4.13
2022-10-28T19:34:11.756Z,4.10
2022-10-28T19:37:14.235Z,4.97
2022-10-28T19:40:16.704Z,4.18
2022-10-28T19:43:19.164Z,4.05
2022-10-28T19:46:23.379Z,4.47
2022-10-28T19:49:28.674Z,5.18
2022-10-28T19:52:35.311Z,4.07
2022-10-28T19:55:37.843Z,4.53
2022-10-28T19:58:40.414Z,4.45
2022-10-28T20:01:44.474Z,4.40
2022-10-28T20:04:48.603Z,4.80
2022-10-28T20:07:53.322Z,4.20
2022-10-28T20:11:00.395Z,4.60
2022-10-28T20:14:05.712Z,4.55
2022-10-28T20:17:09.704Z,5.38
2022-10-28T20:20:13.964Z,4.53
2022-10-28T20:23:16.817Z,4.47
2022-10-28T20:26:19.402Z,5.60
2022-10-28T20:29:22.000Z,4.97
2022-10-28T20:32:25.828Z,4.65
2022-10-28T20:35:28.339Z,5.28
2022-10-28T20:38:30.917Z,5.03
2022-10-28T20:41:35.266Z,5.22
2022-10-28T20:44:37.735Z,4.85
2022-10-28T20:47:41.589Z,4.88
2022-10-28T20:50:50.321Z,4.30
2022-10-28T20:53:53.289Z,4.70
2022-10-28T20:56:55.852Z,4.90
2022-10-28T20:59:58.426Z,4.97
2022-10-28T21:03:02.831Z,5.05
2022-10-28T21:06:05.817Z,4.43
2022-10-28T21:09:08.913Z,4.97
2022-10-28T21:12:11.915Z,4.80
2022-10-28T21:15:14.781Z,4.95
2022-10-28T21:18:18.578Z,4.63
2022-10-28T21:21:21.666Z,4.65
2022-10-28T21:24:24.263Z,4.68
2022-10-28T21:27:26.741Z,4.72
2022-10-28T21:30:29.731Z,4.95
2022-10-28T21:33:34.310Z,5.05
2022-10-28T21:36:37.060Z,4.95
2022-10-28T21:39:39.797Z,4.75
2022-10-28T21:42:42.394Z,4.80
2022-10-28T21:45:45.132Z,5.03
2022-10-28T21:48:49.486Z,4.63
2022-10-28T21:51:51.990Z,4.35
2022-10-28T21:54:54.481Z,4.68
2022-10-28T21:57:57.221Z,4.53
2022-10-28T22:01:04.871Z,4.63
2022-10-28T22:04:08.895Z,4.93
2022-10-28T22:07:11.390Z,4.35
2022-10-28T22:10:14.025Z,4.85
2022-10-28T22:13:16.591Z,4.75
2022-10-28T22:16:19.116Z,5.22
2022-10-28T22:19:22.934Z,4.57
2022-10-28T22:22:26.534Z,4.25
2022-10-28T22:25:29.086Z,4.93
2022-10-28T22:28:31.742Z,4.55
2022-10-28T22:31:34.902Z,4.53
2022-10-28T22:34:38.737Z,3.97
2022-10-28T22:37:41.220Z,4.63
2022-10-28T22:40:43.763Z,4.32
2022-10-28T22:43:48.887Z,4.45
2022-10-28T22:46:51.427Z,4.90
2022-10-28T22:49:55.260Z,4.65
2022-10-28T22:52:57.787Z,4.25
2022-10-28T22:56:00.315Z,3.85
2022-10-28T22:59:03.154Z,4.57
2022-10-28T23:02:05.846Z,3.95
2022-10-28T23:05:10.459Z,3.60
2022-10-28T23:08:15.575Z,4.20
2022-10-28T23:11:19.963Z,3.90
2022-10-28T23:14:22.410Z,4.07
2022-10-28T23:17:24.911Z,4.55
2022-10-28T23:20:30.314Z,4.97
2022-10-28T23:23:32.958Z,4.70
2022-10-28T23:26:35.850Z,4.93
2022-10-28T23:29:38.294Z,3.63
2022-10-28T23:32:41.345Z,3.33
2022-10-28T23:35:45.166Z,4.07
2022-10-28T23:38:47.982Z,4.22
2022-10-28T23:41:50.466Z,4.20
2022-10-28T23:44:52.976Z,4.03
2022-10-28T23:47:55.463Z,4.70
2022-10-28T23:50:59.617Z,4.65
2022-10-28T23:54:02.460Z,4.47
2022-10-28T23:57:05.218Z,4.63
